Time;durP1;ratioP1;P1;durP2;ratioP2;P2;SDS_P1;SDS_P2;PMS_P1;PMS_P2;Temp;Humidity;BMP_temperature;BMP_pressure;BME280_temperature;BME280_humidity;BME280_pressure;Samples;Min_cycle;Max_cycle;Signal;HPM_P1;HPM_P2
2022/12/28 00:02:13;;;;;;;3.88;1.30;;;28.20;99.90;;;;;;4995460;28;20237;-86
2022/12/28 00:04:45;;;;;;;5.15;1.30;;;28.30;99.90;;;;;;4994861;28;20699;-90
2022/12/28 00:07:16;;;;;;;4.00;1.63;;;28.30;99.90;;;;;;4990740;28;20311;-85
2022/12/28 00:09:47;;;;;;;3.85;1.40;;;28.40;99.90;;;;;;4987883;28;20200;-87
2022/12/28 00:12:18;;;;;;;3.05;1.48;;;28.50;99.90;;;;;;4992709;28;20304;-85
2022/12/28 00:14:49;;;;;;;6.20;1.20;;;28.70;99.90;;;;;;4993762;28;20190;-87
2022/12/28 00:17:19;;;;;;;3.25;1.13;;;28.70;99.90;;;;;;4988045;28;20199;-88
2022/12/28 00:19:52;;;;;;;5.63;1.40;;;28.50;99.90;;;;;;4984369;28;20283;-88
2022/12/28 00:22:23;;;;;;;3.95;1.10;;;28.40;99.90;;;;;;4993045;28;20210;-88
2022/12/28 00:24:54;;;;;;;6.03;1.20;;;28.30;99.90;;;;;;4991575;28;20199;-85
2022/12/28 00:27:24;;;;;;;3.60;1.10;;;28.50;99.90;;;;;;4995526;28;20302;-89
2022/12/28 00:29:55;;;;;;;3.47;1.00;;;28.60;99.90;;;;;;4994730;28;20286;-85
2022/12/28 00:32:26;;;;;;;3.05;1.00;;;28.70;99.90;;;;;;4995112;28;20216;-91
2022/12/28 00:34:59;;;;;;;3.78;1.25;;;28.60;99.90;;;;;;4991886;28;20196;-87
2022/12/28 00:37:31;;;;;;;3.90;1.00;;;28.70;99.90;;;;;;4994889;28;20287;-86
2022/12/28 00:40:02;;;;;;;5.93;1.08;;;28.70;99.90;;;;;;4995100;28;20183;-76
2022/12/28 00:42:33;;;;;;;4.93;1.08;;;28.60;99.90;;;;;;4994103;28;20302;-80
2022/12/28 00:45:04;;;;;;;4.03;1.00;;;28.70;99.90;;;;;;4987294;28;20197;-88
2022/12/28 00:47:35;;;;;;;4.75;1.25;;;29.00;99.90;;;;;;4983051;28;20195;-88
2022/12/28 00:50:08;;;;;;;3.17;1.20;;;29.10;99.90;;;;;;4985552;28;21070;-81
2022/12/28 00:52:39;;;;;;;2.05;0.80;;;29.10;99.90;;;;;;4988080;28;20224;-85
2022/12/28 00:55:10;;;;;;;3.60;1.13;;;28.90;99.90;;;;;;4990147;28;20622;-83
2022/12/28 00:57:41;;;;;;;2.28;0.90;;;29.10;99.90;;;;;;4990596;28;20227;-80
2022/12/28 01:00:13;;;;;;;4.32;1.10;;;28.90;99.90;;;;;;4989795;28;20281;-89
2022/12/28 01:02:44;;;;;;;4.68;1.00;;;28.80;99.90;;;;;;4993095;28;20726;-83
2022/12/28 01:05:17;;;;;;;2.75;0.90;;;28.90;99.90;;;;;;4989096;28;20536;-85
2022/12/28 01:07:49;;;;;;;5.80;1.10;;;28.70;99.90;;;;;;4990734;28;20275;-85
2022/12/28 01:10:21;;;;;;;3.13;1.00;;;28.40;99.90;;;;;;4992805;28;20291;-87
2022/12/28 01:12:52;;;;;;;6.70;1.10;;;28.50;99.90;;;;;;4991445;28;20285;-83
2022/12/28 01:15:23;;;;;;;2.88;1.10;;;28.30;99.90;;;;;;4992824;28;20200;-85
2022/12/28 01:17:54;;;;;;;4.57;1.05;;;28.10;99.90;;;;;;4987915;28;20207;-87
2022/12/28 01:20:26;;;;;;;3.20;1.00;;;28.30;99.90;;;;;;4992064;28;20734;-85
2022/12/28 01:22:58;;;;;;;4.78;1.35;;;28.20;99.90;;;;;;4993076;28;20663;-82
2022/12/28 01:25:28;;;;;;;2.63;1.00;;;28.20;99.90;;;;;;4994354;28;20746;-81
2022/12/28 01:28:00;;;;;;;5.65;1.30;;;28.30;99.90;;;;;;4991899;28;20199;-88
2022/12/28 01:30:31;;;;;;;3.38;1.20;;;28.40;99.90;;;;;;4990644;28;20651;-88
2022/12/28 01:33:02;;;;;;;3.90;1.20;;;28.30;99.90;;;;;;4986872;28;20219;-89
2022/12/28 01:35:35;;;;;;;3.58;1.00;;;28.20;99.90;;;;;;4985779;28;20298;-83
2022/12/28 01:38:06;;;;;;;3.05;1.20;;;28.10;99.90;;;;;;4993140;28;20211;-84
2022/12/28 01:40:44;;;;;;;4.03;1.10;;;28.00;99.90;;;;;;4983194;28;20207;-90
2022/12/28 01:43:16;;;;;;;5.68;1.27;;;28.20;99.90;;;;;;4987434;28;20202;-85
2022/12/28 01:45:53;;;;;;;2.90;1.00;;;28.20;99.90;;;;;;4989429;28;20274;-89
2022/12/28 01:48:26;;;;;;;3.65;1.08;;;28.20;99.90;;;;;;4987478;28;20241;-85
2022/12/28 01:50:59;;;;;;;6.00;1.20;;;28.50;99.90;;;;;;4992820;28;20199;-87
2022/12/28 01:53:30;;;;;;;5.10;1.10;;;28.40;99.90;;;;;;4991218;28;20565;-91
2022/12/28 01:56:01;;;;;;;4.88;0.98;;;28.70;99.90;;;;;;4985778;28;20213;-82
2022/12/28 01:58:33;;;;;;;3.63;1.00;;;28.70;99.90;;;;;;4989741;28;20737;-88
2022/12/28 02:01:05;;;;;;;4.25;1.15;;;28.80;99.90;;;;;;4987902;28;20191;-83
2022/12/28 02:03:36;;;;;;;5.68;1.40;;;29.20;99.90;;;;;;4987876;28;20195;-90
2022/12/28 02:06:13;;;;;;;3.72;1.10;;;29.10;99.90;;;;;;4995774;28;20623;-81
2022/12/28 02:08:48;;;;;;;3.15;1.17;;;29.00;99.90;;;;;;4996447;28;20204;-84
2022/12/28 02:11:21;;;;;;;2.92;1.13;;;29.10;99.90;;;;;;4996258;28;20286;-91
2022/12/28 02:13:54;;;;;;;4.40;1.30;;;28.90;99.90;;;;;;4992274;28;20295;-88
2022/12/28 02:16:24;;;;;;;3.13;1.10;;;29.10;99.90;;;;;;4996517;28;20729;-85
2022/12/28 02:18:56;;;;;;;3.35;0.95;;;29.30;99.90;;;;;;4995253;28;20199;-85
2022/12/28 02:21:36;;;;;;;2.30;0.98;;;29.00;99.90;;;;;;4994639;28;20578;-82
2022/12/28 02:24:37;;;;;;;4.70;1.30;;;29.20;99.90;;;;;;4986579;28;20274;-87
2022/12/28 02:27:13;;;;;;;5.07;1.20;;;29.20;99.90;;;;;;4996643;28;20713;-91
2022/12/28 02:30:05;;;;;;;3.80;1.20;;;29.20;99.90;;;;;;4981892;28;20254;-88
2022/12/28 02:32:48;;;;;;;4.15;1.20;;;29.10;99.90;;;;;;4994079;28;20216;-88
2022/12/28 02:35:26;;;;;;;3.47;1.50;;;29.20;99.90;;;;;;4991017;28;20207;-83
2022/12/28 02:38:02;;;;;;;4.93;1.23;;;29.00;99.90;;;;;;4995054;28;20198;-91
2022/12/28 02:40:36;;;;;;;3.83;1.13;;;28.80;99.90;;;;;;4993925;28;20214;-83
2022/12/28 02:43:07;;;;;;;2.47;0.93;;;29.00;99.90;;;;;;4994529;28;20264;-83
2022/12/28 02:51:34;;;;;;;4.57;1.15;;;29.20;99.90;;;;;;4985543;28;20204;-86
2022/12/28 02:57:15;;;;;;;7.40;1.00;;;29.10;99.90;;;;;;4965396;28;20204;-88
2022/12/28 03:00:02;;;;;;;3.10;0.90;;;29.40;99.90;;;;;;4965967;28;20228;-86
2022/12/28 03:02:54;;;;;;;4.82;1.55;;;29.00;99.90;;;;;;4971138;28;21118;-84
2022/12/28 03:08:30;;;;;;;2.10;1.17;;;28.80;99.90;;;;;;4978178;28;20204;-82
2022/12/28 03:11:06;;;;;;;3.28;1.20;;;28.80;99.90;;;;;;4977561;28;20216;-82
2022/12/28 03:13:45;;;;;;;7.78;1.30;;;28.60;99.90;;;;;;4977231;28;20231;-78
2022/12/28 03:16:20;;;;;;;4.30;1.15;;;28.70;99.90;;;;;;4985491;28;20204;-87
2022/12/28 03:33:01;;;;;;;3.20;1.10;;;28.40;99.90;;;;;;4977554;28;20219;-88
2022/12/28 03:35:46;;;;;;;3.17;1.15;;;28.50;99.90;;;;;;4974749;28;20200;-84
2022/12/28 03:38:26;;;;;;;2.70;1.05;;;28.40;99.90;;;;;;4976613;28;20251;-85
2022/12/28 03:41:04;;;;;;;3.17;1.10;;;28.50;99.90;;;;;;4970491;28;20255;-84
2022/12/28 03:43:40;;;;;;;3.40;1.10;;;28.30;99.90;;;;;;4974251;28;20573;-85
2022/12/28 03:46:16;;;;;;;3.55;1.00;;;28.10;99.90;;;;;;4976748;28;20192;-83
2022/12/28 03:48:48;;;;;;;3.00;1.08;;;28.00;99.90;;;;;;4979167;28;20317;-86
2022/12/28 03:51:24;;;;;;;4.80;0.98;;;28.00;99.90;;;;;;4992344;28;20290;-89
2022/12/28 03:53:55;;;;;;;4.30;1.17;;;28.20;99.90;;;;;;4995251;28;20296;-85
2022/12/28 03:56:27;;;;;;;3.85;1.30;;;28.20;99.90;;;;;;4993510;28;20210;-86
2022/12/28 03:58:59;;;;;;;3.83;1.45;;;28.10;99.90;;;;;;4990023;28;20206;-84
2022/12/28 04:01:30;;;;;;;4.13;1.20;;;28.00;99.90;;;;;;4992719;28;20279;-81
2022/12/28 04:04:01;;;;;;;2.72;0.90;;;28.00;99.90;;;;;;4992082;28;20726;-79
2022/12/28 04:06:33;;;;;;;3.17;0.90;;;28.10;99.90;;;;;;4994392;28;20314;-88
2022/12/28 04:09:04;;;;;;;6.03;1.15;;;28.10;99.90;;;;;;4984909;28;20202;-77
2022/12/28 04:11:35;;;;;;;4.35;1.00;;;28.10;99.90;;;;;;4991318;28;20283;-77
2022/12/28 04:14:07;;;;;;;4.07;1.20;;;28.00;99.90;;;;;;4991975;28;20191;-85
2022/12/28 04:16:38;;;;;;;4.18;1.10;;;28.00;99.90;;;;;;4993734;28;20278;-80
2022/12/28 04:19:09;;;;;;;2.10;0.82;;;28.00;99.90;;;;;;4994539;28;20722;-83
2022/12/28 04:21:42;;;;;;;3.95;1.02;;;27.70;99.90;;;;;;4993369;28;20208;-86
2022/12/28 04:24:12;;;;;;;5.22;0.90;;;27.60;99.90;;;;;;4993126;28;20203;-82
2022/12/28 04:26:43;;;;;;;4.53;1.00;;;27.50;99.90;;;;;;4991594;28;20231;-83
2022/12/28 04:29:14;;;;;;;4.30;1.00;;;27.70;99.90;;;;;;4992319;28;20291;-89
2022/12/28 04:31:45;;;;;;;5.28;1.20;;;27.50;99.90;;;;;;4992270;28;20235;-86
2022/12/28 04:34:16;;;;;;;3.90;1.02;;;27.50;99.90;;;;;;4993933;28;20206;-88
2022/12/28 04:36:49;;;;;;;3.13;1.02;;;27.50;99.90;;;;;;4993090;28;20200;-87
2022/12/28 04:39:19;;;;;;;4.18;1.00;;;27.50;99.90;;;;;;4994996;28;20196;-89
2022/12/28 04:41:50;;;;;;;4.32;1.05;;;27.50;99.90;;;;;;4991990;28;20663;-76
2022/12/28 04:44:21;;;;;;;2.05;0.90;;;27.50;99.90;;;;;;4994868;28;20291;-86
2022/12/28 04:46:52;;;;;;;4.93;1.17;;;27.30;99.90;;;;;;4993683;28;20281;-83
2022/12/28 04:49:23;;;;;;;3.22;1.13;;;27.40;99.90;;;;;;4991987;28;20322;-85
2022/12/28 04:51:55;;;;;;;4.45;1.00;;;27.50;99.90;;;;;;4990563;28;20192;-80
2022/12/28 04:54:26;;;;;;;3.50;1.10;;;27.70;99.90;;;;;;4990837;28;20567;-88
2022/12/28 04:56:59;;;;;;;3.67;0.85;;;27.60;99.90;;;;;;4994086;28;20199;-83
2022/12/28 04:59:30;;;;;;;4.05;1.02;;;27.60;99.90;;;;;;4994887;28;20198;-90
2022/12/28 05:02:01;;;;;;;5.55;1.30;;;27.60;99.90;;;;;;4988081;28;20272;-79
2022/12/28 05:04:32;;;;;;;3.25;1.00;;;27.70;99.90;;;;;;4991432;28;20203;-88
2022/12/28 05:07:05;;;;;;;5.47;1.23;;;27.70;99.90;;;;;;4993060;28;20706;-78
2022/12/28 05:09:38;;;;;;;3.88;1.08;;;27.60;99.90;;;;;;4993343;28;20202;-82
2022/12/28 05:12:09;;;;;;;3.80;1.00;;;27.60;99.90;;;;;;4984698;28;20195;-79
2022/12/28 05:14:41;;;;;;;2.55;0.88;;;27.50;99.90;;;;;;4993550;28;20204;-83
2022/12/28 05:17:14;;;;;;;5.40;1.25;;;27.40;99.90;;;;;;4992547;28;20209;-86
2022/12/28 05:19:45;;;;;;;4.80;1.25;;;27.30;99.90;;;;;;4989880;28;20558;-80
2022/12/28 05:22:20;;;;;;;3.75;1.20;;;27.10;99.90;;;;;;4993949;28;20188;-83
2022/12/28 05:24:51;;;;;;;5.35;1.40;;;26.90;99.90;;;;;;4993811;28;20203;-82
2022/12/28 05:27:22;;;;;;;5.53;1.08;;;26.80;99.90;;;;;;4991879;28;20235;-77
2022/12/28 05:29:52;;;;;;;6.15;1.10;;;26.80;99.90;;;;;;4992190;28;20199;-85
2022/12/28 05:32:23;;;;;;;5.68;1.33;;;26.80;99.90;;;;;;4992672;28;20225;-85
2022/12/28 05:34:54;;;;;;;4.03;1.00;;;26.80;99.90;;;;;;4989197;28;20651;-84
2022/12/28 05:37:26;;;;;;;6.18;1.60;;;26.70;99.90;;;;;;4990167;28;20213;-88
2022/12/28 05:39:57;;;;;;;5.15;1.65;;;26.80;99.90;;;;;;4988113;28;20207;-83
2022/12/28 05:42:28;;;;;;;4.55;1.25;;;26.80;99.90;;;;;;4988399;28;20210;-86
2022/12/28 05:44:59;;;;;;;6.65;1.38;;;27.00;99.90;;;;;;4991628;28;20207;-81
2022/12/28 05:47:30;;;;;;;6.80;1.10;;;26.90;99.90;;;;;;4985741;28;20195;-84
2022/12/28 05:50:01;;;;;;;5.82;1.13;;;26.90;99.90;;;;;;4992177;28;20612;-82
2022/12/28 05:52:35;;;;;;;6.47;1.20;;;26.90;99.90;;;;;;4992547;28;20306;-86
2022/12/28 05:55:06;;;;;;;3.53;1.00;;;26.80;99.90;;;;;;4994350;28;20192;-83
2022/12/28 05:57:36;;;;;;;7.75;1.25;;;26.80;99.90;;;;;;4994056;28;20191;-84
2022/12/28 06:00:08;;;;;;;4.85;1.30;;;26.80;99.90;;;;;;4993913;28;20192;-87
2022/12/28 06:02:39;;;;;;;4.72;1.33;;;26.80;99.90;;;;;;4993946;28;20274;-83
2022/12/28 06:05:10;;;;;;;3.30;1.15;;;26.70;99.90;;;;;;4993686;28;20298;-82
2022/12/28 06:07:43;;;;;;;3.35;1.02;;;26.60;99.90;;;;;;4992669;28;20284;-92
2022/12/28 06:10:14;;;;;;;6.45;1.60;;;26.50;99.90;;;;;;4995638;28;20699;-82
2022/12/28 06:12:44;;;;;;;6.18;1.10;;;26.50;99.90;;;;;;4993904;28;20222;-93
2022/12/28 06:15:15;;;;;;;3.45;1.27;;;26.60;99.90;;;;;;4994714;28;20188;-88
2022/12/28 06:17:46;;;;;;;5.75;1.60;;;26.70;99.90;;;;;;4988207;28;20272;-89
2022/12/28 06:20:17;;;;;;;6.78;1.30;;;26.50;99.90;;;;;;4993725;28;20278;-93
2022/12/28 06:22:50;;;;;;;5.13;1.10;;;26.40;99.90;;;;;;4990946;28;20656;-86
2022/12/28 06:25:20;;;;;;;6.00;1.30;;;26.30;99.90;;;;;;4992820;28;20286;-84
2022/12/28 06:27:51;;;;;;;6.18;1.20;;;26.30;99.90;;;;;;4993331;28;20207;-84
2022/12/28 06:30:22;;;;;;;8.73;1.33;;;26.40;99.90;;;;;;4994275;28;20214;-82
2022/12/28 06:32:53;;;;;;;4.90;1.27;;;26.50;99.90;;;;;;4993614;28;20675;-88
2022/12/28 06:35:24;;;;;;;7.47;1.20;;;26.40;99.90;;;;;;4993046;28;20253;-89
2022/12/28 06:37:56;;;;;;;5.05;1.20;;;26.40;99.90;;;;;;4993623;28;20196;-87
2022/12/28 06:40:27;;;;;;;5.35;1.30;;;26.30;99.90;;;;;;4993874;28;20283;-81
2022/12/28 06:42:59;;;;;;;6.07;1.30;;;26.20;99.90;;;;;;4992165;28;20209;-84
2022/12/28 06:45:30;;;;;;;9.77;1.60;;;26.10;99.90;;;;;;4993422;28;20191;-81
2022/12/28 06:48:00;;;;;;;8.48;1.67;;;25.90;99.90;;;;;;4992874;28;20289;-85
2022/12/28 06:50:31;;;;;;;8.45;1.33;;;25.80;99.90;;;;;;4994892;28;20203;-87
2022/12/28 06:53:04;;;;;;;6.97;1.50;;;25.80;99.90;;;;;;4994515;28;20241;-86
2022/12/28 06:55:35;;;;;;;7.97;1.55;;;25.80;99.90;;;;;;4989213;28;20279;-83
2022/12/28 06:58:06;;;;;;;7.22;1.75;;;25.80;99.90;;;;;;4994110;28;20208;-92
2022/12/28 07:00:36;;;;;;;6.75;1.60;;;25.70;99.90;;;;;;4997071;28;20558;-92
2022/12/28 07:03:07;;;;;;;6.28;1.52;;;25.70;99.90;;;;;;4996425;28;20206;-84
2022/12/28 07:05:38;;;;;;;6.97;1.63;;;25.70;99.90;;;;;;4996938;28;20302;-81
2022/12/28 07:08:11;;;;;;;7.80;1.77;;;25.70;99.90;;;;;;4987846;28;20192;-86
2022/12/28 07:10:42;;;;;;;8.57;1.65;;;25.60;99.90;;;;;;4990189;28;20908;-80
2022/12/28 07:13:13;;;;;;;7.38;1.55;;;25.50;99.90;;;;;;4995398;28;20215;-79
2022/12/28 07:15:44;;;;;;;7.82;1.80;;;25.40;99.90;;;;;;4993445;28;20667;-84
2022/12/28 07:18:15;;;;;;;7.03;1.58;;;25.40;99.90;;;;;;4995648;28;20203;-85
2022/12/28 07:20:46;;;;;;;7.53;1.42;;;25.40;99.90;;;;;;4993816;28;20205;-85
2022/12/28 07:23:18;;;;;;;7.38;1.88;;;25.40;99.90;;;;;;4993319;28;20275;-87
2022/12/28 07:25:49;;;;;;;20.85;10.60;;;25.40;99.90;;;;;;4989761;28;20200;-84
2022/12/28 07:28:20;;;;;;;8.25;2.03;;;25.50;99.90;;;;;;4994009;28;20266;-86
2022/12/28 07:30:51;;;;;;;7.13;1.50;;;25.40;99.90;;;;;;4994922;28;20735;-77
2022/12/28 07:33:21;;;;;;;7.00;1.40;;;25.40;99.90;;;;;;4994684;28;20279;-86
2022/12/28 07:35:52;;;;;;;7.45;1.50;;;25.40;99.90;;;;;;4995669;28;20302;-90
2022/12/28 07:38:25;;;;;;;10.52;1.83;;;25.40;99.90;;;;;;4995162;28;20195;-83
2022/12/28 07:41:03;;;;;;;7.05;1.58;;;25.40;99.90;;;;;;4993457;28;20291;-88
2022/12/28 07:43:34;;;;;;;11.75;2.22;;;25.30;99.90;;;;;;4995765;28;20218;-84
2022/12/28 07:46:06;;;;;;;6.45;1.55;;;25.30;99.90;;;;;;4994915;28;20199;-87
2022/12/28 07:48:38;;;;;;;10.40;2.00;;;25.20;99.90;;;;;;4994768;28;20231;-88
2022/12/28 07:51:13;;;;;;;10.20;2.25;;;25.10;99.90;;;;;;4996073;28;20218;-84
2022/12/28 07:53:47;;;;;;;9.00;2.00;;;25.10;99.90;;;;;;4993255;28;20207;-91
2022/12/28 07:56:18;;;;;;;9.23;1.80;;;25.10;99.90;;;;;;4988416;28;20295;-92
2022/12/28 07:58:51;;;;;;;7.97;1.80;;;25.00;99.90;;;;;;4994620;28;20195;-80
2022/12/28 08:01:24;;;;;;;12.57;1.80;;;24.90;99.90;;;;;;4981489;28;20286;-83
2022/12/28 08:03:57;;;;;;;11.68;1.70;;;24.80;99.90;;;;;;4991504;28;20215;-83
2022/12/28 08:06:29;;;;;;;8.32;1.70;;;24.70;99.90;;;;;;4990515;28;20738;-86
2022/12/28 08:09:02;;;;;;;10.88;1.88;;;24.70;99.90;;;;;;4992940;28;20727;-86
2022/12/28 08:11:35;;;;;;;7.72;1.58;;;24.70;99.90;;;;;;4993896;28;20263;-89
2022/12/28 08:14:07;;;;;;;10.90;1.90;;;24.60;99.90;;;;;;4995923;28;20214;-89
2022/12/28 08:16:39;;;;;;;9.70;1.92;;;24.50;99.90;;;;;;4996709;28;20351;-89
2022/12/28 08:19:11;;;;;;;12.15;1.70;;;24.50;99.90;;;;;;4995895;28;20648;-88
2022/12/28 08:21:43;;;;;;;10.82;1.80;;;24.50;99.90;;;;;;4995556;28;20283;-86
2022/12/28 08:24:17;;;;;;;11.05;1.90;;;24.30;99.90;;;;;;4996989;28;20715;-84
2022/12/28 08:26:49;;;;;;;11.18;1.85;;;24.30;99.90;;;;;;4996054;28;20274;-88
2022/12/28 08:29:21;;;;;;;9.75;2.00;;;24.30;99.90;;;;;;4995639;28;20612;-90
2022/12/28 08:31:52;;;;;;;9.63;1.42;;;24.30;99.90;;;;;;4993992;28;20222;-86
2022/12/28 08:34:25;;;;;;;10.18;1.80;;;24.30;99.90;;;;;;4991592;28;20307;-92
2022/12/28 08:36:57;;;;;;;6.32;1.80;;;24.20;99.90;;;;;;4994882;28;20677;-83
2022/12/28 08:39:31;;;;;;;13.50;2.42;;;24.20;99.90;;;;;;4993314;28;20199;-89
2022/12/28 08:42:02;;;;;;;9.88;2.20;;;24.10;99.90;;;;;;4992238;28;20282;-87
2022/12/28 08:44:33;;;;;;;7.93;1.80;;;24.00;99.90;;;;;;4993725;28;20202;-84
2022/12/28 08:47:04;;;;;;;8.40;2.17;;;24.00;99.90;;;;;;4994271;28;20274;-82
2022/12/28 08:49:34;;;;;;;9.20;1.77;;;24.00;99.90;;;;;;4994729;28;20258;-92
2022/12/28 08:52:06;;;;;;;8.70;1.70;;;23.90;99.90;;;;;;4988981;28;20198;-92
2022/12/28 08:54:39;;;;;;;7.88;1.92;;;23.80;99.90;;;;;;4995736;28;20226;-93
2022/12/28 08:57:10;;;;;;;10.93;2.10;;;23.80;99.90;;;;;;4992911;28;20300;-89
2022/12/28 08:59:40;;;;;;;11.52;2.40;;;23.70;99.90;;;;;;4995827;28;20283;-92
2022/12/28 09:02:14;;;;;;;13.30;2.13;;;23.70;99.90;;;;;;4993786;28;20198;-89
2022/12/28 09:04:45;;;;;;;11.07;1.88;;;23.70;99.90;;;;;;4992616;28;20771;-85
2022/12/28 09:07:16;;;;;;;9.82;1.83;;;23.60;99.90;;;;;;4988891;28;20202;-86
2022/12/28 09:09:49;;;;;;;10.00;2.08;;;23.60;99.90;;;;;;4989531;28;20204;-83
2022/12/28 09:12:19;;;;;;;10.40;2.00;;;23.60;99.90;;;;;;4992586;28;20278;-89
2022/12/28 09:14:50;;;;;;;11.07;1.90;;;23.50;99.90;;;;;;4992468;28;20215;-87
2022/12/28 09:17:21;;;;;;;9.25;1.73;;;23.50;99.90;;;;;;4984765;28;20200;-90
2022/12/28 09:19:52;;;;;;;12.90;2.00;;;23.50;99.90;;;;;;4989154;28;20190;-91
2022/12/28 09:22:22;;;;;;;12.63;2.10;;;23.50;99.90;;;;;;4994565;28;20286;-88
2022/12/28 09:24:55;;;;;;;12.02;2.25;;;23.50;99.90;;;;;;4992195;28;20200;-92
2022/12/28 09:27:26;;;;;;;10.35;1.92;;;23.50;99.90;;;;;;4992949;28;20202;-84
2022/12/28 09:29:57;;;;;;;9.82;1.83;;;23.40;99.90;;;;;;4994093;28;20197;-85
2022/12/28 09:32:28;;;;;;;9.25;2.28;;;23.40;99.90;;;;;;4992504;28;20241;-88
2022/12/28 09:34:59;;;;;;;14.10;2.22;;;23.40;99.90;;;;;;4975494;28;20224;-87
2022/12/28 09:37:29;;;;;;;11.57;1.90;;;23.40;99.90;;;;;;4988997;28;20636;-83
2022/12/28 09:40:02;;;;;;;10.80;2.30;;;23.30;99.90;;;;;;4974865;28;20218;-86
2022/12/28 09:42:33;;;;;;;13.70;1.80;;;23.40;99.90;;;;;;4984940;28;20206;-88
2022/12/28 09:45:06;;;;;;;12.18;2.25;;;23.40;99.90;;;;;;4991146;28;20204;-82
2022/12/28 09:47:46;;;;;;;11.15;2.03;;;23.30;99.90;;;;;;4987012;28;20203;-83
2022/12/28 09:50:31;;;;;;;11.90;2.00;;;23.40;99.90;;;;;;4989636;28;20195;-87
2022/12/28 09:53:25;;;;;;;9.15;2.13;;;23.40;99.90;;;;;;4983187;28;20202;-85
2022/12/28 09:56:16;;;;;;;10.55;1.90;;;23.40;99.90;;;;;;4987448;28;20209;-90
2022/12/28 09:58:48;;;;;;;10.75;2.03;;;23.30;99.90;;;;;;4985356;28;20279;-82
2022/12/28 10:01:20;;;;;;;11.05;1.88;;;23.40;99.90;;;;;;4991240;28;20322;-88
2022/12/28 10:03:51;;;;;;;10.45;1.92;;;23.40;99.90;;;;;;4994127;28;20290;-83
2022/12/28 10:06:25;;;;;;;11.10;2.00;;;23.40;99.90;;;;;;4988246;28;20226;-76
2022/12/28 10:08:58;;;;;;;9.20;1.95;;;23.40;99.90;;;;;;4993828;28;20270;-75
2022/12/28 10:11:34;;;;;;;10.45;1.95;;;23.30;99.90;;;;;;4993900;28;20196;-83
2022/12/28 10:14:16;;;;;;;11.52;2.05;;;23.30;99.90;;;;;;4994172;28;20298;-88
2022/12/28 10:16:47;;;;;;;9.93;1.63;;;23.40;99.90;;;;;;4994492;28;20195;-84
2022/12/28 10:19:21;;;;;;;9.80;1.70;;;23.30;99.90;;;;;;4992806;28;20188;-90
2022/12/28 10:21:59;;;;;;;8.30;1.63;;;23.30;99.90;;;;;;4993867;28;20286;-89
2022/12/28 10:24:32;;;;;;;9.60;1.90;;;23.30;99.90;;;;;;4986832;28;20639;-89
2022/12/28 10:27:06;;;;;;;9.02;1.80;;;23.30;99.90;;;;;;4993411;28;20196;-92
2022/12/28 10:29:37;;;;;;;9.60;1.60;;;23.30;99.90;;;;;;4998003;28;20286;-91
2022/12/28 10:32:11;;;;;;;6.72;1.40;;;23.30;99.90;;;;;;4998734;28;20271;-91
2022/12/28 10:34:57;;;;;;;6.68;1.63;;;23.30;99.90;;;;;;4997448;28;20557;-80
2022/12/28 10:37:30;;;;;;;6.97;1.70;;;23.30;99.90;;;;;;4995409;28;20194;-87
2022/12/28 10:40:03;;;;;;;10.27;1.85;;;23.30;99.90;;;;;;4991637;28;20193;-89
2022/12/28 10:42:42;;;;;;;8.52;2.08;;;23.30;99.90;;;;;;4980141;28;20196;-89
2022/12/28 10:45:21;;;;;;;9.73;1.83;;;23.30;99.90;;;;;;4997488;28;20187;-86
2022/12/28 10:47:54;;;;;;;7.38;1.58;;;23.30;99.90;;;;;;4990672;28;20593;-90
2022/12/28 10:50:43;;;;;;;11.77;2.03;;;23.30;99.90;;;;;;4977217;28;20188;-85
2022/12/28 10:53:24;;;;;;;9.80;2.13;;;23.20;99.90;;;;;;4975114;28;20563;-81
2022/12/28 10:56:08;;;;;;;9.85;2.20;;;23.20;99.90;;;;;;4977039;28;20216;-87
2022/12/28 10:58:41;;;;;;;11.55;2.13;;;23.20;99.90;;;;;;4978032;28;20341;-83
2022/12/28 11:01:20;;;;;;;12.07;2.00;;;23.20;99.90;;;;;;4977339;28;20271;-81
2022/12/28 11:04:05;;;;;;;9.02;1.80;;;23.10;99.90;;;;;;4969425;28;20200;-77
2022/12/28 11:06:37;;;;;;;8.52;1.77;;;23.10;99.90;;;;;;4975650;28;20279;-82
2022/12/28 11:09:18;;;;;;;8.73;2.00;;;23.10;99.90;;;;;;4966947;28;20193;-85
2022/12/28 11:11:51;;;;;;;11.95;1.95;;;23.10;99.90;;;;;;4975546;28;20284;-84
2022/12/28 11:14:31;;;;;;;11.00;2.20;;;23.00;99.90;;;;;;4974546;28;20216;-86
2022/12/28 11:17:16;;;;;;;10.88;1.92;;;23.00;99.90;;;;;;4977672;28;20699;-80
2022/12/28 11:19:47;;;;;;;13.77;2.38;;;23.00;99.90;;;;;;4977464;28;20708;-82
2022/12/28 11:22:23;;;;;;;11.48;2.15;;;22.90;99.90;;;;;;4977550;28;20193;-84
2022/12/28 11:24:54;;;;;;;12.93;2.00;;;22.90;99.90;;;;;;4977307;28;20199;-77
2022/12/28 11:27:26;;;;;;;12.20;2.30;;;22.90;99.90;;;;;;4977313;28;20275;-84
2022/12/28 11:29:59;;;;;;;11.95;2.40;;;22.80;99.90;;;;;;4978248;28;20279;-82
2022/12/28 11:32:32;;;;;;;14.68;2.60;;;22.80;99.90;;;;;;4978417;28;20189;-85
2022/12/28 11:35:04;;;;;;;8.85;2.00;;;22.80;99.90;;;;;;4967157;28;20331;-82
2022/12/28 11:37:35;;;;;;;16.17;2.67;;;22.80;99.90;;;;;;4977160;28;20593;-93
2022/12/28 11:40:06;;;;;;;13.18;2.50;;;22.80;99.90;;;;;;4976767;28;20654;-90
2022/12/28 11:42:55;;;;;;;14.40;2.25;;;22.80;99.90;;;;;;4976834;28;20196;-89
2022/12/28 11:45:56;;;;;;;9.30;2.00;;;22.80;99.90;;;;;;4976992;28;20218;-87
2022/12/28 11:48:58;;;;;;;10.73;1.95;;;22.80;99.90;;;;;;4985320;28;20770;-87
2022/12/28 11:51:30;;;;;;;9.48;2.03;;;22.80;99.90;;;;;;4993751;28;20651;-90
2022/12/28 11:54:02;;;;;;;12.73;2.45;;;22.80;99.90;;;;;;4976838;28;20731;-86
2022/12/28 11:57:01;;;;;;;8.15;1.90;;;22.80;99.90;;;;;;4976714;28;20740;-91
2022/12/28 11:59:33;;;;;;;12.05;2.25;;;22.80;99.90;;;;;;4993048;28;20202;-89
2022/12/28 12:02:04;;;;;;;8.80;1.98;;;22.80;99.90;;;;;;4988117;28;20202;-90
2022/12/28 12:04:45;;;;;;;12.27;1.98;;;22.80;99.90;;;;;;4985327;28;20224;-85
2022/12/28 12:07:28;;;;;;;10.02;2.33;;;22.80;99.90;;;;;;4975573;28;20184;-89
2022/12/28 12:10:35;;;;;;;16.35;2.47;;;22.80;99.90;;;;;;4971249;28;20191;-86
2022/12/28 12:13:44;;;;;;;8.20;1.95;;;22.80;99.90;;;;;;4982212;28;20200;-87
2022/12/28 12:16:30;;;;;;;11.35;2.17;;;22.80;99.90;;;;;;4982946;28;20220;-87
2022/12/28 12:19:04;;;;;;;11.27;2.00;;;22.80;99.90;;;;;;4984701;28;20635;-91
2022/12/28 12:21:41;;;;;;;7.93;1.55;;;22.80;99.90;;;;;;4975828;28;20211;-90
2022/12/28 12:24:25;;;;;;;9.68;1.95;;;22.80;99.90;;;;;;4987509;28;20254;-88
2022/12/28 12:27:01;;;;;;;11.55;2.10;;;22.80;99.90;;;;;;4957182;29;20197;-90
2022/12/28 12:29:38;;;;;;;9.95;2.13;;;22.80;99.90;;;;;;4981335;28;20230;-90
2022/12/28 12:32:16;;;;;;;10.73;2.03;;;22.80;99.90;;;;;;4995882;28;20218;-89
2022/12/28 12:34:50;;;;;;;11.00;2.00;;;22.80;99.90;;;;;;4995734;28;20682;-89
2022/12/28 12:37:46;;;;;;;9.18;1.73;;;22.80;99.90;;;;;;4986680;28;20202;-83
2022/12/28 12:41:02;;;;;;;9.80;1.98;;;22.70;99.90;;;;;;4978990;28;20210;-86
2022/12/28 12:43:39;;;;;;;9.05;2.05;;;22.70;99.90;;;;;;4954101;28;20204;-87
2022/12/28 12:46:43;;;;;;;13.65;3.22;;;22.70;99.90;;;;;;4982185;28;20279;-87
2022/12/28 12:49:44;;;;;;;9.43;2.10;;;22.70;99.90;;;;;;4976976;28;20242;-89
2022/12/28 12:52:26;;;;;;;9.40;1.85;;;22.70;99.90;;;;;;4967407;28;20276;-90
2022/12/28 12:55:17;;;;;;;11.48;2.05;;;22.70;99.90;;;;;;4980927;28;20307;-89
2022/12/28 12:57:58;;;;;;;12.90;1.70;;;22.70;99.90;;;;;;4973243;28;20279;-89
2022/12/28 13:00:40;;;;;;;9.90;2.10;;;22.70;99.90;;;;;;4973653;28;20196;-92
2022/12/28 13:03:28;;;;;;;6.78;1.75;;;22.70;99.90;;;;;;4975935;28;20196;-90
2022/12/28 13:06:01;;;;;;;8.82;2.08;;;22.60;99.90;;;;;;4981587;28;20684;-92
2022/12/28 13:08:38;;;;;;;10.93;2.05;;;22.60;99.90;;;;;;4992754;28;20616;-88
2022/12/28 13:11:14;;;;;;;8.75;2.33;;;22.60;99.90;;;;;;4978744;28;20207;-92
2022/12/28 13:13:47;;;;;;;8.57;2.22;;;22.50;99.90;;;;;;4980740;28;20198;-89
2022/12/28 13:16:20;;;;;;;11.55;2.30;;;22.50;99.90;;;;;;4956595;29;20590;-91
2022/12/28 13:18:59;;;;;;;11.98;2.05;;;22.40;99.90;;;;;;4956501;29;20630;-91
2022/12/28 13:21:30;;;;;;;13.02;2.22;;;22.40;99.90;;;;;;4956290;29;20286;-90
2022/12/28 13:24:01;;;;;;;10.98;1.92;;;22.40;99.90;;;;;;4956719;28;20193;-91
2022/12/28 13:26:34;;;;;;;10.65;2.30;;;22.40;99.90;;;;;;4956527;29;20276;-92
2022/12/28 13:29:10;;;;;;;7.95;2.17;;;22.30;99.90;;;;;;4956558;29;20196;-91
2022/12/28 13:31:48;;;;;;;10.85;2.00;;;22.30;99.90;;;;;;4972749;28;20202;-80
2022/12/28 13:34:20;;;;;;;10.73;2.33;;;22.30;99.90;;;;;;4973800;28;20200;-79
2022/12/28 13:36:55;;;;;;;8.25;2.15;;;22.20;99.90;;;;;;4974621;28;20654;-81
2022/12/28 13:39:26;;;;;;;7.05;2.10;;;22.20;99.90;;;;;;4974819;28;20678;-74
2022/12/28 13:42:01;;;;;;;12.95;2.95;;;22.20;99.90;;;;;;4973771;28;20207;-84
2022/12/28 13:44:44;;;;;;;6.65;1.95;;;22.20;99.90;;;;;;4962128;28;20202;-76
2022/12/28 13:47:22;;;;;;;9.38;2.10;;;22.10;99.90;;;;;;4973914;28;20676;-85